createdAt,value
2023-03-02T11:03:17.953Z,95.10
2023-03-02T11:08:19.265Z,79.80
2023-03-02T11:23:46.006Z,77.80
2023-03-02T11:26:22.712Z,70.20
2023-03-02T11:36:51.442Z,67.20
2023-03-02T11:51:58.915Z,59.70
2023-03-02T11:54:36.655Z,59.10
2023-03-02T11:57:04.812Z,58.40
2023-03-02T11:59:34.036Z,57.50
2023-03-02T12:02:01.555Z,56.30
2023-03-02T12:04:33.975Z,57.80
2023-03-02T12:07:15.647Z,58.20
2023-03-02T12:09:42.909Z,58.10
2023-03-02T12:14:57.228Z,56.80
2023-03-02T12:17:27.051Z,55.10
2023-03-02T12:20:09.037Z,56.20
2023-03-02T12:22:37.523Z,55.80
2023-03-02T12:25:23.932Z,56.80
2023-03-02T12:58:28.649Z,56.90
2023-03-02T13:03:26.510Z,51.60
2023-03-02T13:06:10.815Z,51.70
2023-03-02T13:08:38.937Z,51.40
2023-03-02T13:11:06.128Z,51.50
2023-03-02T13:13:32.990Z,50.50
2023-03-02T13:16:19.140Z,51.30
2023-03-02T13:18:47.104Z,51.30
2023-03-02T13:21:14.977Z,50.50
2023-03-02T13:23:51.803Z,51.70
2023-03-02T13:26:30.906Z,50.50
2023-03-02T13:29:23.121Z,49.90
2023-03-02T13:31:50.214Z,50.10
2023-03-02T13:34:33.177Z,50.40
2023-03-02T13:36:59.992Z,51.30
2023-03-02T13:39:30.456Z,49.90
2023-03-02T13:42:02.358Z,48.90
2023-03-02T13:44:34.032Z,49.60
2023-03-02T13:47:02.091Z,49.80
2023-03-02T13:49:35.296Z,50.70
2023-03-02T13:52:08.412Z,49.60
2023-03-02T13:54:40.893Z,51.30
2023-03-02T13:57:15.119Z,49.60
2023-03-02T13:59:42.209Z,48.70
2023-03-02T14:02:25.444Z,48.50
2023-03-02T14:04:52.585Z,49.90
2023-03-02T14:07:20.721Z,48.60
2023-03-02T14:09:48.348Z,49.50
2023-03-02T14:12:28.642Z,49.80
2023-03-02T14:14:59.795Z,50.40
2023-03-02T14:17:26.913Z,50.20
2023-03-02T14:19:55.184Z,49.70
2023-03-02T14:22:23.759Z,50.70
2023-03-02T14:24:51.242Z,50.80
2023-03-02T14:27:18.911Z,50.10
2023-03-02T14:29:46.715Z,50.60
2023-03-02T14:32:15.150Z,49.40
2023-03-02T14:34:42.538Z,49.40
2023-03-02T14:37:18.137Z,51.30
2023-03-02T14:39:55.632Z,51.30
2023-03-02T14:42:23.257Z,50.80
2023-03-02T14:44:51.094Z,53.20
2023-03-02T14:47:19.523Z,53.60
2023-03-02T14:49:46.806Z,52.70
2023-03-02T14:52:42.541Z,54.30
2023-03-02T14:55:28.312Z,55.30
2023-03-02T14:58:04.931Z,56.90
2023-03-02T15:00:31.975Z,58.20
2023-03-02T15:02:59.882Z,58.80
2023-03-02T15:05:26.797Z,58.60
2023-03-02T15:07:58.808Z,58.70
2023-03-02T15:10:25.862Z,59.20
2023-03-02T15:12:52.723Z,56.70
2023-03-02T15:15:19.538Z,56.70
2023-03-02T15:17:46.309Z,58.60
2023-03-02T15:20:15.674Z,59.70
2023-03-02T15:22:42.594Z,58.50
2023-03-02T15:25:09.941Z,58.20
2023-03-02T15:27:36.693Z,56.80
2023-03-02T15:30:04.693Z,57.10
2023-03-02T15:32:31.508Z,58.10
2023-03-02T15:34:58.356Z,57.00
2023-03-02T15:37:25.104Z,57.60
2023-03-02T15:39:55.834Z,58.50
2023-03-02T15:42:24.010Z,59.60
2023-03-02T15:44:51.701Z,60.20
2023-03-02T15:47:18.585Z,60.10
2023-03-02T15:49:45.425Z,60.10
2023-03-02T15:52:12.954Z,59.50
2023-03-02T15:54:40.670Z,59.70
2023-03-02T15:57:07.714Z,60.30
2023-03-02T15:59:34.893Z,59.80
2023-03-02T16:02:02.525Z,60.40
2023-03-02T16:04:31.795Z,61.40
2023-03-02T16:06:59.137Z,61.30
2023-03-02T16:09:28.870Z,61.70
2023-03-02T16:11:56.211Z,63.20
2023-03-02T16:14:26.292Z,62.90
2023-03-02T16:16:53.314Z,64.00
2023-03-02T16:19:21.152Z,64.30
2023-03-02T16:31:40.777Z,66.00
2023-03-02T16:34:09.711Z,66.30
2023-03-02T19:01:55.943Z,77.80
2023-03-02T19:04:26.377Z,99.90
2023-03-02T19:06:56.050Z,99.90
2023-03-02T19:09:23.564Z,99.90
2023-03-02T19:48:44.394Z,99.90
2023-03-02T20:01:16.735Z,99.90
2023-03-02T20:13:35.770Z,99.90
2023-03-02T20:28:23.572Z,99.90
2023-03-02T20:30:56.723Z,99.90
2023-03-02T20:33:34.345Z,99.90
2023-03-02T20:36:03.058Z,99.90
2023-03-02T20:38:37.968Z,99.90
2023-03-02T20:41:06.531Z,99.90
2023-03-02T20:43:33.618Z,99.90
2023-03-02T20:46:00.665Z,99.90
2023-03-02T20:48:28.168Z,99.90
2023-03-02T20:50:55.346Z,99.90
2023-03-02T20:53:23.073Z,99.90
